sensor_id;sensor_type;location;lat;lon;timestamp;pressure;altitude;pressure_sealevel;temperature;humidity
40838;BME280;29632;49.168;9.848;2023-02-04T00:01:04;97869.59;;;11.32;58.13
40838;BME280;29632;49.168;9.848;2023-02-04T00:03:30;97869.72;;;11.30;58.09
40838;BME280;29632;49.168;9.848;2023-02-04T00:05:55;97867.72;;;11.34;58.06
40838;BME280;29632;49.168;9.848;2023-02-04T00:08:21;97865.72;;;11.38;57.92
40838;BME280;29632;49.168;9.848;2023-02-04T00:10:47;97859.06;;;11.33;57.83
40838;BME280;29632;49.168;9.848;2023-02-04T00:13:12;97865.34;;;11.31;58.10
40838;BME280;29632;49.168;9.848;2023-02-04T00:15:38;97876.72;;;11.30;57.95
40838;BME280;29632;49.168;9.848;2023-02-04T00:18:03;97870.94;;;11.26;57.82
40838;BME280;29632;49.168;9.848;2023-02-04T00:20:32;97871.16;;;11.23;58.22
40838;BME280;29632;49.168;9.848;2023-02-04T00:22:57;97868.81;;;11.20;57.99
40838;BME280;29632;49.168;9.848;2023-02-04T00:25:23;97865.38;;;11.20;58.02
40838;BME280;29632;49.168;9.848;2023-02-04T00:27:49;97870.47;;;11.21;58.09
40838;BME280;29632;49.168;9.848;2023-02-04T00:30:14;97864.19;;;11.24;57.84
40838;BME280;29632;49.168;9.848;2023-02-04T00:32:40;97862.28;;;11.26;57.97
40838;BME280;29632;49.168;9.848;2023-02-04T00:35:06;97854.47;;;11.26;57.91
40838;BME280;29632;49.168;9.848;2023-02-04T00:37:31;97858.00;;;11.25;57.65
40838;BME280;29632;49.168;9.848;2023-02-04T00:39:57;97858.97;;;11.24;57.65
40838;BME280;29632;49.168;9.848;2023-02-04T00:42:23;97856.47;;;11.22;57.53
40838;BME280;29632;49.168;9.848;2023-02-04T00:44:48;97854.34;;;11.16;57.97
40838;BME280;29632;49.168;9.848;2023-02-04T00:47:14;97860.75;;;11.12;57.71
40838;BME280;29632;49.168;9.848;2023-02-04T00:49:40;97862.66;;;11.10;57.70
40838;BME280;29632;49.168;9.848;2023-02-04T00:52:05;97861.81;;;11.09;57.82
40838;BME280;29632;49.168;9.848;2023-02-04T00:54:31;97857.69;;;11.07;57.67
40838;BME280;29632;49.168;9.848;2023-02-04T00:56:57;97875.22;;;11.05;57.98
40838;BME280;29632;49.168;9.848;2023-02-04T00:59:23;97875.22;;;11.05;57.65
40838;BME280;29632;49.168;9.848;2023-02-04T01:01:48;97872.75;;;11.03;57.63
40838;BME280;29632;49.168;9.848;2023-02-04T01:04:16;97863.63;;;10.98;57.45
40838;BME280;29632;49.168;9.848;2023-02-04T01:06:41;97883.91;;;10.94;57.45
40838;BME280;29632;49.168;9.848;2023-02-04T01:09:07;97897.16;;;10.91;57.34
40838;BME280;29632;49.168;9.848;2023-02-04T01:11:33;97898.22;;;10.88;57.63
40838;BME280;29632;49.168;9.848;2023-02-04T01:13:58;97893.00;;;10.88;57.54
40838;BME280;29632;49.168;9.848;2023-02-04T01:16:24;97893.13;;;10.87;57.72
40838;BME280;29632;49.168;9.848;2023-02-04T01:18:50;97896.56;;;10.87;57.60
40838;BME280;29632;49.168;9.848;2023-02-04T01:21:16;97894.06;;;10.86;57.30
40838;BME280;29632;49.168;9.848;2023-02-04T01:23:41;97909.72;;;10.86;57.42
40838;BME280;29632;49.168;9.848;2023-02-04T01:26:07;97908.16;;;10.83;57.41
40838;BME280;29632;49.168;9.848;2023-02-04T01:28:33;97903.91;;;10.82;57.52
40838;BME280;29632;49.168;9.848;2023-02-04T01:30:58;97908.41;;;10.80;57.27
40838;BME280;29632;49.168;9.848;2023-02-04T01:33:24;97923.94;;;10.82;57.29
40838;BME280;29632;49.168;9.848;2023-02-04T01:35:50;97928.31;;;10.81;56.95
40838;BME280;29632;49.168;9.848;2023-02-04T01:38:15;97936.97;;;10.82;57.33
40838;BME280;29632;49.168;9.848;2023-02-04T01:40:41;97937.09;;;10.80;56.97
40838;BME280;29632;49.168;9.848;2023-02-04T01:43:07;97934.59;;;10.79;56.88
40838;BME280;29632;49.168;9.848;2023-02-04T01:45:33;97933.03;;;10.76;56.94
40838;BME280;29632;49.168;9.848;2023-02-04T01:48:02;97930.19;;;10.79;57.13
40838;BME280;29632;49.168;9.848;2023-02-04T01:50:28;97939.81;;;10.79;57.11
40838;BME280;29632;49.168;9.848;2023-02-04T01:52:54;97942.63;;;10.75;56.90
40838;BME280;29632;49.168;9.848;2023-02-04T01:55:23;97945.47;;;10.72;56.98
40838;BME280;29632;49.168;9.848;2023-02-04T01:57:49;97944.88;;;10.69;57.03
40838;BME280;29632;49.168;9.848;2023-02-04T02:00:30;97948.56;;;10.66;56.94
40838;BME280;29632;49.168;9.848;2023-02-04T02:02:57;97947.94;;;10.63;56.93
40838;BME280;29632;49.168;9.848;2023-02-04T02:05:26;97949.72;;;10.62;56.61
40838;BME280;29632;49.168;9.848;2023-02-04T02:07:54;97948.06;;;10.61;57.05
40838;BME280;29632;49.168;9.848;2023-02-04T02:10:20;97942.16;;;10.59;56.69
40838;BME280;29632;49.168;9.848;2023-02-04T02:12:46;97953.72;;;10.55;56.63
40838;BME280;29632;49.168;9.848;2023-02-04T02:15:13;97958.94;;;10.55;56.64
40838;BME280;29632;49.168;9.848;2023-02-04T02:17:39;97966.75;;;10.55;56.89
40838;BME280;29632;49.168;9.848;2023-02-04T02:20:06;97965.09;;;10.54;56.72
40838;BME280;29632;49.168;9.848;2023-02-04T02:22:57;97957.41;;;10.52;56.80
40838;BME280;29632;49.168;9.848;2023-02-04T02:25:23;97968.03;;;10.49;57.00
40838;BME280;29632;49.168;9.848;2023-02-04T02:27:49;97967.44;;;10.46;57.12
40838;BME280;29632;49.168;9.848;2023-02-04T02:30:16;97966.50;;;10.47;56.71
40838;BME280;29632;49.168;9.848;2023-02-04T02:32:43;97976.31;;;10.43;57.04
40838;BME280;29632;49.168;9.848;2023-02-04T02:35:10;97983.41;;;10.41;56.91
40838;BME280;29632;49.168;9.848;2023-02-04T02:37:35;97986.13;;;10.39;56.99
40838;BME280;29632;49.168;9.848;2023-02-04T02:40:02;97986.25;;;10.38;56.59
40838;BME280;29632;49.168;9.848;2023-02-04T02:42:28;97986.59;;;10.33;57.01
40838;BME280;29632;49.168;9.848;2023-02-04T02:44:54;97977.53;;;10.26;57.02
40838;BME280;29632;49.168;9.848;2023-02-04T02:47:21;97974.53;;;10.19;56.86
40838;BME280;29632;49.168;9.848;2023-02-04T02:49:49;97977.47;;;10.15;56.86
40838;BME280;29632;49.168;9.848;2023-02-04T02:52:16;97973.44;;;10.11;56.74
40838;BME280;29632;49.168;9.848;2023-02-04T02:54:41;97976.97;;;10.10;56.95
40838;BME280;29632;49.168;9.848;2023-02-04T02:57:11;97972.84;;;10.07;56.69
40838;BME280;29632;49.168;9.848;2023-02-04T02:59:37;97978.03;;;10.07;56.97
40838;BME280;29632;49.168;9.848;2023-02-04T03:02:03;97982.19;;;10.10;56.71
40838;BME280;29632;49.168;9.848;2023-02-04T03:04:33;97997.69;;;10.11;56.88
40838;BME280;29632;49.168;9.848;2023-02-04T03:07:00;97997.59;;;10.13;56.84
40838;BME280;29632;49.168;9.848;2023-02-04T03:09:26;98002.78;;;10.13;56.46
40838;BME280;29632;49.168;9.848;2023-02-04T03:11:52;98007.19;;;10.12;56.86
40838;BME280;29632;49.168;9.848;2023-02-04T03:14:18;98015.69;;;10.14;56.75
40838;BME280;29632;49.168;9.848;2023-02-04T03:16:44;98026.81;;;10.16;56.36
40838;BME280;29632;49.168;9.848;2023-02-04T03:19:11;98031.22;;;10.16;56.75
40838;BME280;29632;49.168;9.848;2023-02-04T03:21:37;98042.44;;;10.16;56.77
40838;BME280;29632;49.168;9.848;2023-02-04T03:24:03;98057.13;;;10.17;56.67
40838;BME280;29632;49.168;9.848;2023-02-04T03:26:29;98061.28;;;10.20;56.51
40838;BME280;29632;49.168;9.848;2023-02-04T03:28:55;98064.59;;;10.22;56.34
40838;BME280;29632;49.168;9.848;2023-02-04T03:31:21;98065.34;;;10.24;56.44
40838;BME280;29632;49.168;9.848;2023-02-04T03:33:46;98072.19;;;10.25;56.51
40838;BME280;29632;49.168;9.848;2023-02-04T03:36:12;98061.06;;;10.23;56.39
40838;BME280;29632;49.168;9.848;2023-02-04T03:38:38;98066.16;;;10.25;56.13
40838;BME280;29632;49.168;9.848;2023-02-04T03:41:03;98068.97;;;10.21;56.45
40838;BME280;29632;49.168;9.848;2023-02-04T03:43:29;98066.50;;;10.20;56.41
40838;BME280;29632;49.168;9.848;2023-02-04T03:45:55;98077.00;;;10.18;56.56
40838;BME280;29632;49.168;9.848;2023-02-04T03:48:20;98077.00;;;10.18;56.63
40838;BME280;29632;49.168;9.848;2023-02-04T03:50:46;98080.69;;;10.16;56.44
40838;BME280;29632;49.168;9.848;2023-02-04T03:53:12;98081.94;;;10.10;56.32
40838;BME280;29632;49.168;9.848;2023-02-04T03:55:37;98071.75;;;10.07;56.53
40838;BME280;29632;49.168;9.848;2023-02-04T03:58:03;98081.34;;;10.07;56.60
40838;BME280;29632;49.168;9.848;2023-02-04T04:00:29;98087.56;;;10.04;56.42
40838;BME280;29632;49.168;9.848;2023-02-04T04:02:57;98087.56;;;10.04;56.71
40838;BME280;29632;49.168;9.848;2023-02-04T04:05:23;98086.75;;;10.04;56.39
40838;BME280;29632;49.168;9.848;2023-02-04T04:07:48;98087.69;;;10.02;56.15
40838;BME280;29632;49.168;9.848;2023-02-04T04:10:14;98103.31;;;10.02;56.32
40838;BME280;29632;49.168;9.848;2023-02-04T04:12:40;98110.06;;;10.05;56.68
40838;BME280;29632;49.168;9.848;2023-02-04T04:15:06;98111.81;;;10.05;56.26
40838;BME280;29632;49.168;9.848;2023-02-04T04:17:32;98106.53;;;10.06;56.09
40838;BME280;29632;49.168;9.848;2023-02-04T04:19:57;98109.22;;;10.05;56.19
40838;BME280;29632;49.168;9.848;2023-02-04T04:22:23;98113.59;;;10.04;56.09
40838;BME280;29632;49.168;9.848;2023-02-04T04:24:49;98113.59;;;10.04;56.39
40838;BME280;29632;49.168;9.848;2023-02-04T04:27:14;98122.25;;;10.05;56.09
40838;BME280;29632;49.168;9.848;2023-02-04T04:29:40;98122.38;;;10.03;56.35
40838;BME280;29632;49.168;9.848;2023-02-04T04:32:05;98122.47;;;10.01;56.00
40838;BME280;29632;49.168;9.848;2023-02-04T04:34:31;98128.09;;;9.95;56.37
40838;BME280;29632;49.168;9.848;2023-02-04T04:36:57;98121.47;;;9.91;56.58
40838;BME280;29632;49.168;9.848;2023-02-04T04:39:23;98129.38;;;9.90;56.30
40838;BME280;29632;49.168;9.848;2023-02-04T04:41:48;98127.78;;;9.87;56.31
40838;BME280;29632;49.168;9.848;2023-02-04T04:44:14;98134.88;;;9.85;56.48
40838;BME280;29632;49.168;9.848;2023-02-04T04:46:40;98141.97;;;9.83;56.64
40838;BME280;29632;49.168;9.848;2023-02-04T04:49:05;98148.84;;;9.84;56.18
40838;BME280;29632;49.168;9.848;2023-02-04T04:51:31;98156.41;;;9.87;56.35
40838;BME280;29632;49.168;9.848;2023-02-04T04:53:58;98152.88;;;9.88;56.43
40838;BME280;29632;49.168;9.848;2023-02-04T04:56:23;98143.19;;;9.90;56.55
40838;BME280;29632;49.168;9.848;2023-02-04T04:58:49;98136.25;;;9.91;56.05
40838;BME280;29632;49.168;9.848;2023-02-04T05:01:14;98137.16;;;9.90;56.03
40838;BME280;29632;49.168;9.848;2023-02-04T05:03:40;98137.06;;;9.91;56.07
40838;BME280;29632;49.168;9.848;2023-02-04T05:06:06;98141.31;;;9.92;56.05
40838;BME280;29632;49.168;9.848;2023-02-04T05:08:33;98131.97;;;9.90;56.04
40838;BME280;29632;49.168;9.848;2023-02-04T05:11:01;98136.56;;;9.86;56.29
40838;BME280;29632;49.168;9.848;2023-02-04T05:13:27;98144.56;;;9.83;55.90
40838;BME280;29632;49.168;9.848;2023-02-04T05:15:53;98148.31;;;9.79;55.95
40838;BME280;29632;49.168;9.848;2023-02-04T05:18:19;98145.81;;;9.77;56.04
40838;BME280;29632;49.168;9.848;2023-02-04T05:20:44;98145.09;;;9.75;56.11
40838;BME280;29632;49.168;9.848;2023-02-04T05:23:10;98146.97;;;9.73;55.93
40838;BME280;29632;49.168;9.848;2023-02-04T05:25:36;98143.63;;;9.71;56.13
40838;BME280;29632;49.168;9.848;2023-02-04T05:28:01;98141.13;;;9.70;55.97
40838;BME280;29632;49.168;9.848;2023-02-04T05:30:27;98136.97;;;9.67;55.99
40838;BME280;29632;49.168;9.848;2023-02-04T05:32:53;98135.22;;;9.68;56.54
40838;BME280;29632;49.168;9.848;2023-02-04T05:35:19;98135.22;;;9.68;55.87
40838;BME280;29632;49.168;9.848;2023-02-04T05:37:44;98137.81;;;9.68;56.29
40838;BME280;29632;49.168;9.848;2023-02-04T05:40:11;98130.09;;;9.66;56.13
40838;BME280;29632;49.168;9.848;2023-02-04T05:42:37;98143.13;;;9.66;56.17
40838;BME280;29632;49.168;9.848;2023-02-04T05:45:03;98152.69;;;9.66;55.82
40838;BME280;29632;49.168;9.848;2023-02-04T05:47:29;98152.78;;;9.64;55.72
40838;BME280;29632;49.168;9.848;2023-02-04T05:49:55;98158.94;;;9.63;55.56
40838;BME280;29632;49.168;9.848;2023-02-04T05:52:20;98165.06;;;9.62;55.94
40838;BME280;29632;49.168;9.848;2023-02-04T05:54:46;98174.66;;;9.61;56.05
40838;BME280;29632;49.168;9.848;2023-02-04T05:57:12;98185.88;;;9.62;56.10
40838;BME280;29632;49.168;9.848;2023-02-04T05:59:37;98194.41;;;9.64;56.03
40838;BME280;29632;49.168;9.848;2023-02-04T06:02:03;98195.28;;;9.64;55.84
40838;BME280;29632;49.168;9.848;2023-02-04T06:04:29;98197.75;;;9.66;55.68
40838;BME280;29632;49.168;9.848;2023-02-04T06:06:54;98207.22;;;9.67;55.84
40838;BME280;29632;49.168;9.848;2023-02-04T06:09:20;98208.91;;;9.68;55.59
40838;BME280;29632;49.168;9.848;2023-02-04T06:11:45;98215.75;;;9.69;55.40
40838;BME280;29632;49.168;9.848;2023-02-04T06:14:11;98222.63;;;9.70;55.56
40838;BME280;29632;49.168;9.848;2023-02-04T06:16:37;98221.06;;;9.68;55.40
40838;BME280;29632;49.168;9.848;2023-02-04T06:19:02;98217.53;;;9.69;55.70
40838;BME280;29632;49.168;9.848;2023-02-04T06:21:28;98222.72;;;9.69;55.55
40838;BME280;29632;49.168;9.848;2023-02-04T06:23:54;98209.72;;;9.69;55.45
40838;BME280;29632;49.168;9.848;2023-02-04T06:26:19;98214.94;;;9.69;55.80
40838;BME280;29632;49.168;9.848;2023-02-04T06:28:45;98220.84;;;9.71;55.66
40838;BME280;29632;49.168;9.848;2023-02-04T06:31:10;98220.75;;;9.72;55.43
40838;BME280;29632;49.168;9.848;2023-02-04T06:33:36;98220.56;;;9.75;55.40
40838;BME280;29632;49.168;9.848;2023-02-04T06:36:03;98227.41;;;9.76;55.35
40838;BME280;29632;49.168;9.848;2023-02-04T06:38:29;98228.25;;;9.77;55.43
40838;BME280;29632;49.168;9.848;2023-02-04T06:40:54;98230.00;;;9.76;55.73
40838;BME280;29632;49.168;9.848;2023-02-04T06:43:20;98237.91;;;9.75;55.73
40838;BME280;29632;49.168;9.848;2023-02-04T06:45:47;98233.75;;;9.72;55.56
40838;BME280;29632;49.168;9.848;2023-02-04T06:48:12;98237.09;;;9.74;55.23
40838;BME280;29632;49.168;9.848;2023-02-04T06:50:38;98235.31;;;9.75;55.26
40838;BME280;29632;49.168;9.848;2023-02-04T06:53:04;98245.72;;;9.75;55.14
40838;BME280;29632;49.168;9.848;2023-02-04T06:55:29;98237.81;;;9.76;55.57
40838;BME280;29632;49.168;9.848;2023-02-04T06:57:55;98242.19;;;9.76;55.59
40838;BME280;29632;49.168;9.848;2023-02-04T07:00:21;98253.31;;;9.78;55.45
40838;BME280;29632;49.168;9.848;2023-02-04T07:02:46;98254.91;;;9.80;55.37
40838;BME280;29632;49.168;9.848;2023-02-04T07:05:12;98254.06;;;9.80;55.18
40838;BME280;29632;49.168;9.848;2023-02-04T07:07:37;98258.34;;;9.81;55.10
40838;BME280;29632;49.168;9.848;2023-02-04T07:10:03;98259.06;;;9.83;54.96
40838;BME280;29632;49.168;9.848;2023-02-04T07:12:29;98257.50;;;9.80;54.99
40838;BME280;29632;49.168;9.848;2023-02-04T07:14:55;98267.06;;;9.80;54.98
40838;BME280;29632;49.168;9.848;2023-02-04T07:17:21;98269.75;;;9.78;55.32
40838;BME280;29632;49.168;9.848;2023-02-04T07:19:47;98268.94;;;9.78;55.03
40838;BME280;29632;49.168;9.848;2023-02-04T07:22:13;98272.25;;;9.80;55.45
40838;BME280;29632;49.168;9.848;2023-02-04T07:24:39;98273.03;;;9.82;55.39
40838;BME280;29632;49.168;9.848;2023-02-04T07:27:05;98284.97;;;9.85;55.38
40838;BME280;29632;49.168;9.848;2023-02-04T07:29:31;98296.22;;;9.85;55.33
40838;BME280;29632;49.168;9.848;2023-02-04T07:31:56;98301.41;;;9.85;54.92
40838;BME280;29632;49.168;9.848;2023-02-04T07:34:22;98297.91;;;9.86;55.08
40838;BME280;29632;49.168;9.848;2023-02-04T07:36:47;98303.00;;;9.88;55.26
40838;BME280;29632;49.168;9.848;2023-02-04T07:39:13;98305.59;;;9.88;54.86
40838;BME280;29632;49.168;9.848;2023-02-04T07:41:39;98308.09;;;9.89;55.44
40838;BME280;29632;49.168;9.848;2023-02-04T07:44:04;98317.56;;;9.90;55.24
40838;BME280;29632;49.168;9.848;2023-02-04T07:46:30;98315.91;;;9.89;55.43
40838;BME280;29632;49.168;9.848;2023-02-04T07:48:56;98327.97;;;9.90;55.06
40838;BME280;29632;49.168;9.848;2023-02-04T07:51:21;98328.69;;;9.92;55.36
40838;BME280;29632;49.168;9.848;2023-02-04T07:53:47;98332.78;;;9.96;55.25
40838;BME280;29632;49.168;9.848;2023-02-04T07:56:13;98336.13;;;9.98;55.22
40838;BME280;29632;49.168;9.848;2023-02-04T07:58:39;98345.47;;;10.01;54.98
40838;BME280;29632;49.168;9.848;2023-02-04T08:01:05;98346.22;;;10.03;55.28
40838;BME280;29632;49.168;9.848;2023-02-04T08:03:30;98348.59;;;10.06;55.31
40838;BME280;29632;49.168;9.848;2023-02-04T08:05:56;98342.38;;;10.09;54.82
40838;BME280;29632;49.168;9.848;2023-02-04T08:08:21;98341.41;;;10.10;55.04
40838;BME280;29632;49.168;9.848;2023-02-04T08:10:47;98345.50;;;10.14;54.73
40838;BME280;29632;49.168;9.848;2023-02-04T08:13:13;98351.53;;;10.14;54.85
40838;BME280;29632;49.168;9.848;2023-02-04T08:15:39;98351.44;;;10.16;55.09
40838;BME280;29632;49.168;9.848;2023-02-04T08:18:04;98350.63;;;10.15;55.11
40838;BME280;29632;49.168;9.848;2023-02-04T08:20:30;98364.47;;;10.16;55.12
40838;BME280;29632;49.168;9.848;2023-02-04T08:22:56;98371.34;;;10.17;54.82
40838;BME280;29632;49.168;9.848;2023-02-04T08:25:22;98378.09;;;10.19;55.21
40838;BME280;29632;49.168;9.848;2023-02-04T08:27:47;98384.13;;;10.20;54.96
40838;BME280;29632;49.168;9.848;2023-02-04T08:30:13;98383.41;;;10.18;54.87
40838;BME280;29632;49.168;9.848;2023-02-04T08:32:39;98381.00;;;10.15;54.97
40838;BME280;29632;49.168;9.848;2023-02-04T08:35:05;98377.47;;;10.16;55.22
40838;BME280;29632;49.168;9.848;2023-02-04T08:37:31;98383.50;;;10.16;54.94
40838;BME280;29632;49.168;9.848;2023-02-04T08:39:57;98392.03;;;10.18;55.20
40838;BME280;29632;49.168;9.848;2023-02-04T08:42:22;98400.72;;;10.19;54.87
40838;BME280;29632;49.168;9.848;2023-02-04T08:44:48;98404.03;;;10.21;55.29
40838;BME280;29632;49.168;9.848;2023-02-04T08:47:14;98405.69;;;10.22;54.92
40838;BME280;29632;49.168;9.848;2023-02-04T08:49:39;98410.81;;;10.24;55.26
40838;BME280;29632;49.168;9.848;2023-02-04T08:52:05;98410.06;;;10.21;55.15
40838;BME280;29632;49.168;9.848;2023-02-04T08:54:32;98412.47;;;10.25;55.04
40838;BME280;29632;49.168;9.848;2023-02-04T08:56:59;98411.44;;;10.27;54.99
40838;BME280;29632;49.168;9.848;2023-02-04T08:59:24;98421.66;;;10.30;54.92
40838;BME280;29632;49.168;9.848;2023-02-04T09:01:50;98421.47;;;10.33;54.98
40838;BME280;29632;49.168;9.848;2023-02-04T09:04:20;98422.13;;;10.37;55.05
40838;BME280;29632;49.168;9.848;2023-02-04T09:06:47;98423.66;;;10.39;54.86
40838;BME280;29632;49.168;9.848;2023-02-04T09:09:13;98431.38;;;10.41;54.89
40838;BME280;29632;49.168;9.848;2023-02-04T09:11:39;98433.69;;;10.46;55.05
40838;BME280;29632;49.168;9.848;2023-02-04T09:14:04;98434.22;;;10.51;54.92
40838;BME280;29632;49.168;9.848;2023-02-04T09:16:30;98438.16;;;10.56;54.83
40838;BME280;29632;49.168;9.848;2023-02-04T09:18:56;98433.47;;;10.62;54.95
40838;BME280;29632;49.168;9.848;2023-02-04T09:21:23;98443.81;;;10.63;54.71
40838;BME280;29632;49.168;9.848;2023-02-04T09:23:49;98446.31;;;10.65;54.59
40838;BME280;29632;49.168;9.848;2023-02-04T09:26:15;98443.50;;;10.68;54.52
40838;BME280;29632;49.168;9.848;2023-02-04T09:28:40;98447.75;;;10.69;54.76
40838;BME280;29632;49.168;9.848;2023-02-04T09:31:06;98454.75;;;10.68;54.81
40838;BME280;29632;49.168;9.848;2023-02-04T09:33:32;98459.97;;;10.68;54.55
40838;BME280;29632;49.168;9.848;2023-02-04T09:35:58;98467.69;;;10.70;54.48
40838;BME280;29632;49.168;9.848;2023-02-04T09:38:24;98462.47;;;10.70;54.83
40838;BME280;29632;49.168;9.848;2023-02-04T09:40:54;98465.91;;;10.70;54.73
40838;BME280;29632;49.168;9.848;2023-02-04T09:43:25;98469.84;;;10.76;54.74
40838;BME280;29632;49.168;9.848;2023-02-04T09:45:52;98474.03;;;10.79;54.46
40838;BME280;29632;49.168;9.848;2023-02-04T09:48:18;98471.25;;;10.82;54.86
40838;BME280;29632;49.168;9.848;2023-02-04T09:50:45;98476.13;;;10.86;54.76
40838;BME280;29632;49.168;9.848;2023-02-04T09:53:16;98486.25;;;10.91;54.61
40838;BME280;29632;49.168;9.848;2023-02-04T09:55:44;98487.69;;;10.95;54.95
40838;BME280;29632;49.168;9.848;2023-02-04T10:00:38;98487.91;;;11.05;54.61
40838;BME280;29632;49.168;9.848;2023-02-04T10:03:13;98489.47;;;11.07;54.49
40838;BME280;29632;49.168;9.848;2023-02-04T10:05:40;98494.47;;;11.10;54.54
40838;BME280;29632;49.168;9.848;2023-02-04T10:08:05;98496.97;;;11.12;54.37
40838;BME280;29632;49.168;9.848;2023-02-04T10:10:31;98499.47;;;11.13;54.27
40838;BME280;29632;49.168;9.848;2023-02-04T10:12:59;98491.56;;;11.15;54.27
40838;BME280;29632;49.168;9.848;2023-02-04T10:15:26;98493.22;;;11.16;54.22
40838;BME280;29632;49.168;9.848;2023-02-04T10:17:57;98500.94;;;11.18;54.26
40838;BME280;29632;49.168;9.848;2023-02-04T10:20:25;98499.16;;;11.18;54.32
40838;BME280;29632;49.168;9.848;2023-02-04T10:22:52;98498.22;;;11.19;54.32
40838;BME280;29632;49.168;9.848;2023-02-04T10:25:21;98492.06;;;11.20;54.45
40838;BME280;29632;49.168;9.848;2023-02-04T10:27:49;98487.69;;;11.21;54.44
40838;BME280;29632;49.168;9.848;2023-02-04T10:30:25;98492.69;;;11.24;54.08
40838;BME280;29632;49.168;9.848;2023-02-04T10:32:52;98496.94;;;11.25;54.26
40838;BME280;29632;49.168;9.848;2023-02-04T10:35:19;98490.00;;;11.25;54.16
40838;BME280;29632;49.168;9.848;2023-02-04T10:37:45;98486.41;;;11.26;54.23
40838;BME280;29632;49.168;9.848;2023-02-04T10:40:29;98492.47;;;11.27;54.27
40838;BME280;29632;49.168;9.848;2023-02-04T10:42:55;98488.94;;;11.28;54.17
40838;BME280;29632;49.168;9.848;2023-02-04T10:45:28;98487.03;;;11.30;53.95
40838;BME280;29632;49.168;9.848;2023-02-04T10:47:55;98492.16;;;11.31;54.04
40838;BME280;29632;49.168;9.848;2023-02-04T10:50:25;98477.31;;;11.32;54.27
40838;BME280;29632;49.168;9.848;2023-02-04T10:52:56;98483.50;;;11.31;54.24
40838;BME280;29632;49.168;9.848;2023-02-04T10:55:42;98477.44;;;11.30;54.24
40838;BME280;29632;49.168;9.848;2023-02-04T10:58:11;98486.00;;;11.32;54.17
40838;BME280;29632;49.168;9.848;2023-02-04T11:00:39;98495.38;;;11.35;54.12
40838;BME280;29632;49.168;9.848;2023-02-04T11:03:31;98496.34;;;11.34;53.87
40838;BME280;29632;49.168;9.848;2023-02-04T11:05:58;98499.88;;;11.33;54.03
40838;BME280;29632;49.168;9.848;2023-02-04T11:08:35;98500.69;;;11.33;54.13
40838;BME280;29632;49.168;9.848;2023-02-04T11:11:14;98501.75;;;11.31;53.96
40838;BME280;29632;49.168;9.848;2023-02-04T11:16:32;98501.56;;;11.34;54.05
40838;BME280;29632;49.168;9.848;2023-02-04T11:19:04;98498.72;;;11.37;53.85
40838;BME280;29632;49.168;9.848;2023-02-04T11:24:03;98492.88;;;11.33;54.14
40838;BME280;29632;49.168;9.848;2023-02-04T11:26:34;98497.16;;;11.34;54.04
40838;BME280;29632;49.168;9.848;2023-02-04T11:31:27;98497.78;;;11.38;53.97
40838;BME280;29632;49.168;9.848;2023-02-04T11:34:25;98489.00;;;11.39;54.15
40838;BME280;29632;49.168;9.848;2023-02-04T11:37:03;98496.81;;;11.39;54.04
40838;BME280;29632;49.168;9.848;2023-02-04T11:39:48;98492.34;;;11.41;54.07
40838;BME280;29632;49.168;9.848;2023-02-04T11:42:40;98496.50;;;11.44;54.10
40838;BME280;29632;49.168;9.848;2023-02-04T11:45:20;98496.63;;;11.42;53.89
40838;BME280;29632;49.168;9.848;2023-02-04T11:47:48;98495.91;;;11.40;54.11
40838;BME280;29632;49.168;9.848;2023-02-04T11:52:43;98509.75;;;11.41;53.96
40838;BME280;29632;49.168;9.848;2023-02-04T11:55:09;98507.16;;;11.41;54.04
40838;BME280;29632;49.168;9.848;2023-02-04T11:57:40;98513.94;;;11.43;54.12
40838;BME280;29632;49.168;9.848;2023-02-04T12:00:13;98512.88;;;11.46;54.09
40838;BME280;29632;49.168;9.848;2023-02-04T12:02:45;98501.31;;;11.50;53.95
40838;BME280;29632;49.168;9.848;2023-02-04T12:05:14;98506.28;;;11.53;53.86
40838;BME280;29632;49.168;9.848;2023-02-04T12:07:40;98507.97;;;11.54;53.95
40838;BME280;29632;49.168;9.848;2023-02-04T12:12:53;98510.59;;;11.54;53.86
40838;BME280;29632;49.168;9.848;2023-02-04T12:15:24;98514.13;;;11.53;54.04
40838;BME280;29632;49.168;9.848;2023-02-04T12:18:03;98524.56;;;11.53;53.74
40838;BME280;29632;49.168;9.848;2023-02-04T12:20:29;98513.31;;;11.52;53.80
40838;BME280;29632;49.168;9.848;2023-02-04T12:22:55;98522.81;;;11.53;53.86
40838;BME280;29632;49.168;9.848;2023-02-04T12:25:21;98521.13;;;11.52;53.98
40838;BME280;29632;49.168;9.848;2023-02-04T12:27:47;98520.31;;;11.52;54.00
40838;BME280;29632;49.168;9.848;2023-02-04T12:30:13;98527.16;;;11.53;53.80
40838;BME280;29632;49.168;9.848;2023-02-04T12:32:38;98525.41;;;11.53;53.97
40838;BME280;29632;49.168;9.848;2023-02-04T12:35:04;98529.91;;;11.51;54.06
40838;BME280;29632;49.168;9.848;2023-02-04T12:37:30;98523.84;;;11.51;53.77
40838;BME280;29632;49.168;9.848;2023-02-04T12:39:56;98517.78;;;11.50;54.02
40838;BME280;29632;49.168;9.848;2023-02-04T12:42:22;98526.34;;;11.52;53.65
40838;BME280;29632;49.168;9.848;2023-02-04T12:44:47;98522.09;;;11.51;53.75
40838;BME280;29632;49.168;9.848;2023-02-04T12:47:13;98520.41;;;11.50;53.80
40838;BME280;29632;49.168;9.848;2023-02-04T12:49:38;98520.31;;;11.52;53.83
40838;BME280;29632;49.168;9.848;2023-02-04T12:52:04;98522.81;;;11.53;53.73
40838;BME280;29632;49.168;9.848;2023-02-04T12:54:30;98515.91;;;11.52;53.75
40838;BME280;29632;49.168;9.848;2023-02-04T12:56:56;98522.91;;;11.52;53.58
40838;BME280;29632;49.168;9.848;2023-02-04T12:59:25;98528.94;;;11.52;53.66
40838;BME280;29632;49.168;9.848;2023-02-04T13:01:51;98522.09;;;11.51;53.69
40838;BME280;29632;49.168;9.848;2023-02-04T13:04:16;98528.13;;;11.52;53.76
40838;BME280;29632;49.168;9.848;2023-02-04T13:06:42;98522.91;;;11.52;53.79
40838;BME280;29632;49.168;9.848;2023-02-04T13:09:07;98536.78;;;11.52;53.78
40838;BME280;29632;49.168;9.848;2023-02-04T13:11:33;98528.13;;;11.52;53.58
40838;BME280;29632;49.168;9.848;2023-02-04T13:13:59;98525.53;;;11.52;53.39
40838;BME280;29632;49.168;9.848;2023-02-04T13:16:24;98528.13;;;11.52;53.57